Ackermanville, Pennsylvania
Current Conditions -  °F | °C
As of 2:51 AM on Saturday 20 Dec 2014 (Local Time) from KABE Reporting Station
Overcast Overcast  
Wind Chill: 25°   Ceiling: 2400
Heat Index: 31°   Visibility: 10mi
Dew Point: 20°   Wind: 6mph
Humidity: 64%   Direction: 330°NNW
Pressure: 30.22"   Gusts: NA
Location:  40.84°N, 75.22°W
Report Text: KABE 200751Z AUTO 33005KT 10SM OVC024 M01/M07 A3022 RMK AO2 SLP236 T10061067 TSNO
Loading
Personal Weather Stations






























Interactive Weather Map New forecast layout! Learn more

10-Day Weather Forecast

Advertisements
Track Severe Weather on mobile